createdAt,value
2023-06-26T00:01:09.445Z,100279.38
2023-06-26T00:01:34.589Z,100279.38
2023-06-26T00:03:36.067Z,100604.75
2023-06-26T00:06:02.600Z,100589.72
2023-06-26T00:06:34.625Z,100589.72
2023-06-26T00:08:29.919Z,100013.75
2023-06-26T00:10:59.000Z,100241.50
2023-06-26T00:11:35.647Z,100241.50
2023-06-26T00:13:26.941Z,100624.16
2023-06-26T00:15:53.411Z,100289.13
2023-06-26T00:16:34.688Z,100289.13
2023-06-26T00:18:24.304Z,100571.47
2023-06-26T00:20:50.936Z,100575.50
2023-06-26T00:21:34.737Z,100575.50
2023-06-26T00:23:18.468Z,100489.09
2023-06-26T00:25:45.471Z,100552.44
2023-06-26T00:26:34.737Z,100552.44
2023-06-26T00:28:11.946Z,100505.41
2023-06-26T00:30:39.026Z,100561.97
2023-06-26T00:31:34.789Z,100561.97
2023-06-26T00:33:05.736Z,100569.97
2023-06-26T00:35:32.508Z,100599.81
2023-06-26T00:36:34.819Z,100599.81
2023-06-26T00:37:59.021Z,100447.19
2023-06-26T00:40:27.610Z,100587.41
2023-06-26T00:41:34.933Z,100587.41
2023-06-26T00:42:54.660Z,100335.91
2023-06-26T00:45:30.425Z,100613.22
2023-06-26T00:46:34.930Z,100613.22
2023-06-26T00:48:10.574Z,100558.38
2023-06-26T00:50:37.312Z,100629.72
2023-06-26T00:51:34.962Z,100629.72
2023-06-26T00:53:07.211Z,100599.09
2023-06-26T00:55:33.865Z,100347.03
2023-06-26T00:56:34.931Z,100347.03
2023-06-26T00:58:00.457Z,100628.25
2023-06-26T01:00:27.673Z,100548.28
2023-06-26T01:01:35.044Z,100548.28
2023-06-26T01:02:57.014Z,100582.03
2023-06-26T01:05:23.599Z,100502.41
2023-06-26T01:06:35.009Z,100502.41
2023-06-26T01:07:52.775Z,100627.31
2023-06-26T01:10:20.219Z,100595.81
2023-06-26T01:11:35.075Z,100595.81
2023-06-26T01:12:46.956Z,100576.06
2023-06-26T01:15:13.460Z,100527.56
2023-06-26T01:16:35.048Z,100527.56
2023-06-26T01:17:44.283Z,100541.63
2023-06-26T01:20:11.359Z,100192.94
2023-06-26T01:21:35.203Z,100192.94
2023-06-26T01:22:47.140Z,100620.19
2023-06-26T01:25:32.672Z,100227.50
2023-06-26T01:26:35.144Z,100227.50
2023-06-26T01:28:00.328Z,100286.19
2023-06-26T01:30:27.271Z,100494.31
2023-06-26T01:31:35.211Z,100494.31
2023-06-26T01:32:53.979Z,100582.38
2023-06-26T01:35:20.860Z,100627.06
2023-06-26T01:36:35.204Z,100627.06
2023-06-26T01:37:47.307Z,100514.69
2023-06-26T01:40:14.183Z,100583.09
2023-06-26T01:41:35.232Z,100583.09
2023-06-26T01:42:41.044Z,100288.44
2023-06-26T01:45:27.439Z,99961.47
2023-06-26T01:46:36.327Z,99961.47
2023-06-26T01:47:57.907Z,100317.00
2023-06-26T01:50:29.393Z,100657.69
2023-06-26T01:51:35.325Z,100657.69
2023-06-26T01:53:04.498Z,100210.50
2023-06-26T01:55:53.169Z,100636.13
2023-06-26T01:56:35.329Z,100636.13
2023-06-26T01:58:23.801Z,100571.66
2023-06-26T02:00:50.822Z,100547.28
2023-06-26T02:01:35.391Z,100547.28
2023-06-26T02:03:17.594Z,100393.25
2023-06-26T02:05:45.559Z,100373.81
2023-06-26T02:06:38.500Z,100373.81
2023-06-26T02:08:15.524Z,100222.19
2023-06-26T02:10:42.369Z,100202.78
2023-06-26T02:11:35.470Z,100202.78
2023-06-26T02:13:09.128Z,100645.81
2023-06-26T02:15:35.617Z,100345.13
2023-06-26T02:16:35.413Z,100345.13
2023-06-26T02:18:02.118Z,100541.59
2023-06-26T02:20:31.272Z,100642.06
2023-06-26T02:21:35.419Z,100642.06
2023-06-26T02:22:57.683Z,100672.09
2023-06-26T02:25:24.324Z,100633.97
2023-06-26T02:26:35.498Z,100633.97
2023-06-26T02:27:50.804Z,100631.28
2023-06-26T02:30:17.369Z,100636.88
2023-06-26T02:31:35.552Z,100636.88
2023-06-26T02:32:44.157Z,100555.16
2023-06-26T02:35:10.659Z,100500.59
2023-06-26T02:36:35.493Z,100500.59
2023-06-26T02:37:37.624Z,100433.28
2023-06-26T02:40:04.906Z,100565.84
2023-06-26T02:41:35.525Z,100565.84
2023-06-26T02:42:32.773Z,100587.97
2023-06-26T02:45:02.457Z,100650.09
2023-06-26T02:46:35.635Z,100650.09
2023-06-26T02:47:29.460Z,100535.47
2023-06-26T02:49:57.149Z,100571.31
2023-06-26T02:51:35.563Z,100571.31
2023-06-26T02:52:23.675Z,100625.97
2023-06-26T02:54:50.201Z,100666.06
2023-06-26T02:56:40.172Z,100666.06
2023-06-26T02:57:18.079Z,100607.06
2023-06-26T02:59:55.216Z,100662.84
2023-06-26T03:01:35.717Z,100662.84
2023-06-26T03:02:21.788Z,100688.34
2023-06-26T03:04:51.038Z,100585.75
2023-06-26T03:06:35.896Z,100585.75
2023-06-26T03:07:17.592Z,100492.59
2023-06-26T03:09:46.917Z,100648.41
2023-06-26T03:11:35.754Z,100648.41
2023-06-26T03:12:16.028Z,100740.34
2023-06-26T03:14:50.015Z,100766.69
2023-06-26T03:16:35.819Z,100766.69
2023-06-26T03:17:16.487Z,100614.34
2023-06-26T03:19:43.642Z,100756.03
2023-06-26T03:21:35.829Z,100756.03
2023-06-26T03:22:10.170Z,100688.91
2023-06-26T03:24:43.089Z,100701.53
2023-06-26T03:26:35.785Z,100701.53
2023-06-26T03:27:12.089Z,100401.00
2023-06-26T03:29:38.601Z,100733.63
2023-06-26T03:31:35.860Z,100733.63
2023-06-26T03:32:05.433Z,100579.28
2023-06-26T03:34:31.868Z,100679.78
2023-06-26T03:36:35.900Z,100679.78
2023-06-26T03:36:58.309Z,100787.75
2023-06-26T03:39:24.774Z,100793.78
2023-06-26T03:41:35.933Z,100793.78
2023-06-26T03:41:56.011Z,100624.97
2023-06-26T03:44:23.691Z,100781.97
2023-06-26T03:46:36.055Z,100781.97
2023-06-26T03:46:50.574Z,100555.78
2023-06-26T03:49:20.265Z,100525.94
2023-06-26T03:51:38.047Z,100525.94
2023-06-26T03:51:49.334Z,100113.81
2023-06-26T03:54:17.366Z,100838.94
2023-06-26T03:56:36.174Z,100838.94
2023-06-26T03:56:48.303Z,100560.69
2023-06-26T03:59:20.684Z,100187.19
2023-06-26T04:01:37.152Z,100187.19
2023-06-26T04:01:54.104Z,100411.66
2023-06-26T04:04:23.538Z,100103.72
2023-06-26T04:06:36.103Z,100103.72
2023-06-26T04:07:03.357Z,100842.78
2023-06-26T04:09:32.089Z,100429.03
2023-06-26T04:11:38.794Z,100429.03
2023-06-26T04:11:58.844Z,100584.78
2023-06-26T04:14:25.607Z,100190.91
2023-06-26T04:16:36.206Z,100190.91
2023-06-26T04:16:54.938Z,100437.56
2023-06-26T04:19:35.051Z,100336.00
2023-06-26T04:21:38.697Z,100336.00
2023-06-26T04:22:05.370Z,100155.16
2023-06-26T04:24:36.731Z,100865.16
2023-06-26T04:26:36.230Z,100865.16
2023-06-26T04:27:07.073Z,100243.88
2023-06-26T04:29:45.900Z,100778.91
2023-06-26T04:31:36.350Z,100778.91
2023-06-26T04:32:12.749Z,100606.13
2023-06-26T04:34:44.262Z,100495.81
2023-06-26T04:36:36.320Z,100495.81
2023-06-26T04:37:20.400Z,100573.00
2023-06-26T04:39:47.440Z,100484.31
2023-06-26T04:41:37.390Z,100484.31
2023-06-26T04:42:28.782Z,100598.72
2023-06-26T04:45:00.709Z,100497.88
2023-06-26T04:46:36.340Z,100497.88
2023-06-26T04:47:28.796Z,100153.66
2023-06-26T04:49:57.571Z,100459.59
2023-06-26T04:51:36.373Z,100459.59
2023-06-26T04:52:28.598Z,100354.94
2023-06-26T04:55:06.227Z,100117.53
2023-06-26T04:56:39.500Z,100117.53
2023-06-26T04:58:05.638Z,100500.00
2023-06-26T05:00:39.412Z,100845.06
2023-06-26T05:01:39.281Z,100845.06
2023-06-26T05:03:13.838Z,100317.00
2023-06-26T05:05:40.722Z,100627.47
2023-06-26T05:06:36.380Z,100627.47
2023-06-26T05:08:23.824Z,100560.97
2023-06-26T05:10:50.784Z,100753.13
2023-06-26T05:11:36.394Z,100753.13
2023-06-26T05:13:18.772Z,100769.50
2023-06-26T05:15:46.106Z,100656.28
2023-06-26T05:16:36.383Z,100656.28
2023-06-26T05:18:13.081Z,100743.63
2023-06-26T05:20:39.913Z,100632.28
2023-06-26T05:21:36.539Z,100632.28
2023-06-26T05:23:06.726Z,100804.78
2023-06-26T05:25:35.146Z,100680.97
2023-06-26T05:26:37.450Z,100680.97
2023-06-26T05:28:02.285Z,100795.50
2023-06-26T05:30:29.444Z,100733.19
2023-06-26T05:31:36.645Z,100733.19
2023-06-26T05:32:56.675Z,100738.19
2023-06-26T05:35:23.939Z,100665.22
2023-06-26T05:36:36.507Z,100665.22
2023-06-26T05:37:51.608Z,100811.72
2023-06-26T05:40:21.935Z,100781.19
2023-06-26T05:41:36.411Z,100781.19
2023-06-26T05:42:49.015Z,100662.66
2023-06-26T05:45:15.766Z,100696.81
2023-06-26T05:46:36.410Z,100696.81
2023-06-26T05:47:43.184Z,100615.78
2023-06-26T05:50:11.066Z,100700.16
2023-06-26T05:51:36.628Z,100700.16
2023-06-26T05:52:37.855Z,100621.69
2023-06-26T05:55:04.809Z,100712.47
2023-06-26T05:56:36.678Z,100712.47
2023-06-26T05:57:31.700Z,100672.88
2023-06-26T05:59:58.983Z,100534.19
2023-06-26T06:01:36.474Z,100534.19
2023-06-26T06:02:25.427Z,100511.16
2023-06-26T06:04:52.042Z,100386.28
2023-06-26T06:06:36.411Z,100386.28
2023-06-26T06:07:18.547Z,100698.78
2023-06-26T06:09:45.148Z,100562.66
2023-06-26T06:11:36.427Z,100562.66
2023-06-26T06:12:11.582Z,100705.69
2023-06-26T06:14:38.001Z,100668.03
2023-06-26T06:16:36.448Z,100668.03
2023-06-26T06:17:04.570Z,100502.06
2023-06-26T06:19:31.005Z,100685.47
2023-06-26T06:21:36.427Z,100685.47
2023-06-26T06:21:57.417Z,100620.75
2023-06-26T06:24:23.824Z,100600.97
2023-06-26T06:26:36.425Z,100600.97
2023-06-26T06:26:50.219Z,100603.88
2023-06-26T06:29:16.691Z,100597.28
2023-06-26T06:31:36.452Z,100597.28
2023-06-26T06:31:43.080Z,100597.97
2023-06-26T06:34:09.526Z,100700.78
2023-06-26T06:36:36.166Z,100734.28
2023-06-26T06:36:36.459Z,100734.28
2023-06-26T06:39:02.668Z,100675.16
2023-06-26T06:41:29.101Z,100717.19
2023-06-26T06:41:37.549Z,100717.19
2023-06-26T06:43:55.708Z,100764.72
2023-06-26T06:46:22.152Z,100689.13
2023-06-26T06:46:36.431Z,100689.13
2023-06-26T06:48:48.548Z,100601.84
2023-06-26T06:51:15.215Z,100542.56
2023-06-26T06:51:36.431Z,100542.56
2023-06-26T06:53:41.654Z,100660.25
2023-06-26T06:56:08.128Z,100620.97
2023-06-26T06:56:36.417Z,100620.97
2023-06-26T06:58:34.835Z,100734.63
2023-06-26T07:01:03.619Z,100694.88
2023-06-26T07:01:36.442Z,100694.88
2023-06-26T07:03:30.149Z,100880.91
2023-06-26T07:05:57.165Z,100695.69
2023-06-26T07:06:36.415Z,100695.69
2023-06-26T07:08:23.562Z,100715.56
2023-06-26T07:10:52.330Z,100713.44
2023-06-26T07:11:36.454Z,100713.44
2023-06-26T07:13:19.804Z,100765.13
2023-06-26T07:15:46.824Z,100784.31
2023-06-26T07:16:36.464Z,100784.31
2023-06-26T07:18:13.309Z,100766.47
2023-06-26T07:20:39.941Z,100754.09
2023-06-26T07:21:36.414Z,100754.09
2023-06-26T07:23:06.584Z,100778.59
2023-06-26T07:25:33.019Z,100641.25
2023-06-26T07:26:45.435Z,100641.25
2023-06-26T07:27:59.391Z,100787.19
2023-06-26T07:30:25.820Z,100853.78
2023-06-26T07:31:36.484Z,100853.78
2023-06-26T07:32:52.223Z,100829.78
2023-06-26T07:35:18.809Z,100824.78
2023-06-26T07:36:36.461Z,100824.78
2023-06-26T07:37:45.327Z,100774.28
2023-06-26T07:40:12.584Z,100718.56
2023-06-26T07:41:36.436Z,100718.56
2023-06-26T07:42:39.339Z,100849.53
2023-06-26T07:45:10.925Z,100850.22
2023-06-26T07:46:36.445Z,100850.22
2023-06-26T07:47:42.842Z,100768.91
2023-06-26T07:50:09.608Z,100793.56
2023-06-26T07:51:36.418Z,100793.56
2023-06-26T07:52:36.173Z,100850.75
2023-06-26T07:55:02.577Z,100726.94
2023-06-26T07:56:36.427Z,100726.94
2023-06-26T07:57:29.002Z,100851.25
2023-06-26T07:59:56.702Z,100905.59
2023-06-26T08:01:36.455Z,100905.59
2023-06-26T08:02:23.431Z,100892.31
2023-06-26T08:04:52.103Z,100792.38
2023-06-26T08:06:36.428Z,100792.38
2023-06-26T08:07:19.796Z,100847.66
2023-06-26T08:09:46.281Z,100786.25
2023-06-26T08:11:36.439Z,100786.25
2023-06-26T08:12:13.638Z,100867.09
2023-06-26T08:14:40.152Z,100787.34
2023-06-26T08:16:36.419Z,100787.34
2023-06-26T08:17:06.631Z,100859.28
2023-06-26T08:19:32.972Z,100866.91
2023-06-26T08:21:36.439Z,100866.91
2023-06-26T08:21:59.368Z,100787.00
2023-06-26T08:24:25.760Z,100799.41
2023-06-26T08:26:36.434Z,100799.41
2023-06-26T08:26:52.130Z,100769.41
2023-06-26T08:29:18.569Z,100778.44
2023-06-26T08:31:36.477Z,100778.44
2023-06-26T08:31:45.144Z,100894.34
2023-06-26T08:34:11.766Z,100736.19
2023-06-26T08:36:36.495Z,100736.19
2023-06-26T08:36:38.230Z,100767.72
2023-06-26T08:39:06.708Z,100801.91
2023-06-26T08:41:33.473Z,100790.00
2023-06-26T08:41:36.433Z,100790.00
2023-06-26T08:44:00.022Z,100817.34
2023-06-26T08:46:26.531Z,100827.59
2023-06-26T08:46:36.439Z,100827.59
2023-06-26T08:48:57.213Z,100915.16
2023-06-26T08:51:29.642Z,100875.19
2023-06-26T08:51:36.448Z,100875.19
2023-06-26T08:54:00.908Z,100901.69
2023-06-26T08:56:46.496Z,100828.44
2023-06-26T08:56:46.638Z,100828.44
2023-06-26T08:59:15.080Z,100872.19
2023-06-26T09:01:36.422Z,100872.19
2023-06-26T09:01:42.299Z,100839.59
2023-06-26T09:04:08.798Z,100772.44
2023-06-26T09:06:35.293Z,100887.94
2023-06-26T09:06:36.500Z,100887.94
2023-06-26T09:09:01.950Z,100811.81
2023-06-26T09:11:28.390Z,100895.63
2023-06-26T09:11:36.449Z,100895.63
2023-06-26T09:13:56.178Z,100773.94
2023-06-26T09:16:30.120Z,100810.78
2023-06-26T09:16:36.478Z,100810.78
2023-06-26T09:18:57.487Z,100853.25
2023-06-26T09:21:25.388Z,100770.88
2023-06-26T09:21:36.437Z,100770.88
2023-06-26T09:23:55.392Z,100821.41
2023-06-26T09:26:23.328Z,100874.34
2023-06-26T09:26:36.441Z,100874.34
2023-06-26T09:28:50.946Z,100772.47
2023-06-26T09:31:27.956Z,100781.44
2023-06-26T09:31:42.223Z,100781.44
2023-06-26T09:34:04.786Z,100775.88
2023-06-26T09:36:39.839Z,100841.75
2023-06-26T09:36:40.964Z,100841.75
2023-06-26T09:39:13.080Z,100800.47
2023-06-26T09:41:36.433Z,100800.47
2023-06-26T09:41:42.411Z,100776.81
2023-06-26T09:44:13.189Z,100774.06
2023-06-26T09:46:36.512Z,100774.06
2023-06-26T09:46:39.664Z,100796.81
2023-06-26T09:49:07.171Z,100634.06
2023-06-26T09:51:35.455Z,100825.97
2023-06-26T09:51:36.505Z,100825.97
2023-06-26T09:54:03.457Z,100857.94
2023-06-26T09:56:31.297Z,100750.63
2023-06-26T09:56:36.447Z,100750.63
2023-06-26T09:58:59.185Z,100859.34
2023-06-26T10:01:26.826Z,100627.41
2023-06-26T10:01:36.562Z,100627.41
2023-06-26T10:03:55.072Z,100727.91
2023-06-26T10:06:32.623Z,100844.38
2023-06-26T10:06:36.460Z,100844.38
2023-06-26T10:09:00.586Z,100790.16
2023-06-26T10:11:46.049Z,100638.63
2023-06-26T10:11:46.175Z,100638.63
2023-06-26T10:14:18.116Z,100657.03
2023-06-26T10:16:36.496Z,100657.03
2023-06-26T10:16:46.519Z,100679.69
2023-06-26T10:19:15.522Z,100601.47
2023-06-26T10:21:36.436Z,100601.47
2023-06-26T10:21:42.448Z,100759.09
2023-06-26T10:24:11.461Z,100704.06
2023-06-26T10:26:36.460Z,100704.06
2023-06-26T10:26:42.338Z,100722.91
2023-06-26T10:29:09.994Z,100743.53
2023-06-26T10:31:38.918Z,100716.50
2023-06-26T10:31:39.095Z,100716.50
2023-06-26T10:34:06.328Z,100670.94
2023-06-26T10:36:32.809Z,100760.00
2023-06-26T10:36:36.434Z,100760.00
2023-06-26T10:39:06.177Z,100700.75
2023-06-26T10:41:52.957Z,100704.94
2023-06-26T10:42:05.532Z,100704.94
2023-06-26T10:44:27.517Z,100712.88
2023-06-26T10:46:36.428Z,100712.88
2023-06-26T10:46:55.185Z,100576.28
2023-06-26T10:49:26.037Z,100575.28
2023-06-26T10:51:36.482Z,100575.28
2023-06-26T10:51:52.910Z,100713.50
2023-06-26T10:54:20.446Z,100631.59
2023-06-26T10:56:36.461Z,100631.59
2023-06-26T10:56:48.754Z,100698.19
2023-06-26T10:59:22.018Z,100649.00
2023-06-26T11:01:36.584Z,100649.00
2023-06-26T11:02:04.744Z,100632.63
2023-06-26T11:04:38.192Z,100545.81
2023-06-26T11:06:36.456Z,100545.81
2023-06-26T11:07:25.185Z,100609.91
2023-06-26T11:10:00.825Z,100462.53
2023-06-26T11:11:36.452Z,100462.53
2023-06-26T11:12:39.229Z,100695.94
2023-06-26T11:15:17.251Z,100641.09
2023-06-26T11:16:36.475Z,100641.09
2023-06-26T11:17:45.115Z,100644.00
2023-06-26T11:20:13.417Z,100626.41
2023-06-26T11:21:36.448Z,100626.41
2023-06-26T11:22:41.585Z,100474.75
2023-06-26T11:25:09.685Z,100614.28
2023-06-26T11:26:36.465Z,100614.28
2023-06-26T11:27:39.576Z,100494.63
2023-06-26T11:30:07.423Z,100446.31
2023-06-26T11:31:36.487Z,100446.31
2023-06-26T11:32:34.234Z,100421.91
2023-06-26T11:35:00.897Z,100323.59
2023-06-26T11:36:36.499Z,100323.59
2023-06-26T11:37:27.659Z,100630.78
2023-06-26T11:39:54.509Z,100502.63
2023-06-26T11:41:36.479Z,100502.63
2023-06-26T11:42:21.951Z,100612.78
2023-06-26T11:44:48.784Z,100559.25
2023-06-26T11:46:36.486Z,100559.25
2023-06-26T11:47:20.130Z,100645.75
2023-06-26T11:49:48.108Z,100666.56
2023-06-26T11:51:36.517Z,100666.56
2023-06-26T11:52:15.890Z,100423.75
2023-06-26T11:54:43.696Z,100662.28
2023-06-26T11:56:36.470Z,100662.28
2023-06-26T11:57:15.522Z,100595.25
2023-06-26T11:59:42.296Z,100650.34
2023-06-26T12:01:36.492Z,100650.34
2023-06-26T12:02:10.624Z,100608.59
2023-06-26T12:04:38.793Z,100648.84
2023-06-26T12:06:36.500Z,100648.84
2023-06-26T12:07:09.045Z,100590.94
2023-06-26T12:09:39.854Z,100585.78
2023-06-26T12:11:36.488Z,100585.78
2023-06-26T12:12:06.698Z,100564.72
2023-06-26T12:14:33.340Z,100733.03
2023-06-26T12:16:36.508Z,100733.03
2023-06-26T12:17:09.577Z,100663.53
2023-06-26T12:19:39.120Z,100551.66
2023-06-26T12:21:36.492Z,100551.66
2023-06-26T12:22:11.887Z,100537.84
2023-06-26T12:24:43.979Z,100678.22
2023-06-26T12:26:36.507Z,100678.22
2023-06-26T12:27:15.492Z,100662.78
2023-06-26T12:29:54.889Z,100692.44
2023-06-26T12:31:36.489Z,100692.44
2023-06-26T12:32:26.482Z,100597.59
2023-06-26T12:34:53.980Z,100557.03
2023-06-26T12:36:36.476Z,100557.03
2023-06-26T12:37:20.520Z,100452.19
2023-06-26T12:39:57.292Z,100540.56
2023-06-26T12:41:36.493Z,100540.56
2023-06-26T12:42:28.671Z,100523.06
2023-06-26T12:44:57.492Z,100550.56
2023-06-26T12:46:36.654Z,100550.56
2023-06-26T12:47:28.903Z,100491.63
2023-06-26T12:49:55.890Z,100548.34
2023-06-26T12:51:36.493Z,100548.34
2023-06-26T12:52:22.620Z,100448.34
2023-06-26T12:54:54.412Z,100408.75
2023-06-26T12:56:36.478Z,100408.75
2023-06-26T12:57:20.892Z,100506.53
2023-06-26T12:59:47.389Z,100488.25
2023-06-26T13:01:36.521Z,100488.25
2023-06-26T13:02:14.264Z,100644.91
2023-06-26T13:04:41.419Z,100269.94
2023-06-26T13:06:36.487Z,100269.94
2023-06-26T13:07:09.123Z,100481.06
2023-06-26T13:09:37.656Z,100498.22
2023-06-26T13:11:36.480Z,100498.22
2023-06-26T13:12:05.080Z,100339.03
2023-06-26T13:14:32.170Z,100489.28
2023-06-26T13:16:36.499Z,100489.28
2023-06-26T13:16:58.592Z,100392.47
2023-06-26T13:19:25.093Z,100485.06
2023-06-26T13:21:36.554Z,100485.06
2023-06-26T13:21:51.555Z,100393.25
2023-06-26T13:24:18.116Z,100461.06
2023-06-26T13:26:38.241Z,100461.06
2023-06-26T13:26:44.533Z,100447.28
2023-06-26T13:29:11.215Z,100364.94
2023-06-26T13:31:38.026Z,100352.91
2023-06-26T13:31:38.221Z,100352.91
2023-06-26T13:34:07.037Z,100348.97
2023-06-26T13:36:36.478Z,100475.06
2023-06-26T13:36:36.607Z,100475.06
2023-06-26T13:39:04.159Z,100348.38
2023-06-26T13:41:30.768Z,100378.59
2023-06-26T13:41:36.506Z,100378.59
2023-06-26T13:44:01.377Z,100501.66
2023-06-26T13:46:34.028Z,100276.63
2023-06-26T13:46:36.521Z,100276.63
2023-06-26T13:49:00.513Z,100515.84
2023-06-26T13:51:26.963Z,100469.41
2023-06-26T13:51:36.485Z,100469.41
2023-06-26T13:53:53.428Z,100573.47
2023-06-26T13:56:19.850Z,100637.88
2023-06-26T13:56:36.498Z,100637.88
2023-06-26T13:58:46.247Z,100416.75
2023-06-26T14:01:13.692Z,100458.31
2023-06-26T14:01:36.485Z,100458.31
2023-06-26T14:03:40.123Z,100404.56
2023-06-26T14:06:06.555Z,100428.06
2023-06-26T14:06:36.491Z,100428.06
2023-06-26T14:08:33.093Z,100323.13
2023-06-26T14:11:00.067Z,100417.16
2023-06-26T14:11:36.600Z,100417.16
2023-06-26T14:13:26.556Z,100469.00
2023-06-26T14:15:53.884Z,100479.59
2023-06-26T14:16:36.588Z,100479.59
2023-06-26T14:18:21.849Z,100518.97
2023-06-26T14:20:48.260Z,100510.00
2023-06-26T14:21:36.506Z,100510.00
2023-06-26T14:23:14.652Z,100516.72
2023-06-26T14:25:41.021Z,100464.16
2023-06-26T14:26:36.497Z,100464.16
2023-06-26T14:28:07.592Z,100454.81
2023-06-26T14:30:34.053Z,100458.69
2023-06-26T14:31:36.489Z,100458.69
2023-06-26T14:33:00.523Z,100577.28
2023-06-26T14:35:27.090Z,100355.00
2023-06-26T14:36:36.530Z,100355.00
2023-06-26T14:37:53.457Z,100490.56
2023-06-26T14:40:20.743Z,100425.00
2023-06-26T14:41:36.505Z,100425.00
2023-06-26T14:42:47.670Z,100374.63
2023-06-26T14:45:14.563Z,100467.16
2023-06-26T14:46:36.537Z,100467.16
2023-06-26T14:47:41.622Z,100500.97
2023-06-26T14:50:09.334Z,100564.38
2023-06-26T14:51:36.508Z,100564.38
2023-06-26T14:52:35.800Z,100588.00
2023-06-26T14:55:03.094Z,100552.59
2023-06-26T14:56:36.518Z,100552.59
2023-06-26T14:57:31.214Z,100582.25
2023-06-26T14:59:57.687Z,100564.81
2023-06-26T15:01:36.602Z,100564.81
2023-06-26T15:02:24.195Z,100496.78
2023-06-26T15:04:50.693Z,100584.81
2023-06-26T15:06:36.503Z,100584.81
2023-06-26T15:07:17.175Z,100613.69
2023-06-26T15:09:43.646Z,100585.25
2023-06-26T15:11:36.502Z,100585.25
2023-06-26T15:12:10.291Z,100536.91
2023-06-26T15:14:36.665Z,100436.72
2023-06-26T15:16:36.548Z,100436.72
2023-06-26T15:17:03.147Z,100513.16
2023-06-26T15:19:29.576Z,100495.41
2023-06-26T15:21:36.522Z,100495.41
2023-06-26T15:21:56.344Z,100596.72
2023-06-26T15:24:22.705Z,100588.13
2023-06-26T15:26:36.515Z,100588.13
2023-06-26T15:26:49.128Z,100551.09
2023-06-26T15:29:16.523Z,100571.34
2023-06-26T15:31:36.553Z,100571.34
2023-06-26T15:31:42.984Z,100557.22
2023-06-26T15:34:09.396Z,100592.78
2023-06-26T15:36:35.762Z,100498.63
2023-06-26T15:36:36.520Z,100498.63
2023-06-26T15:39:02.235Z,100588.06
2023-06-26T15:41:28.583Z,100554.25
2023-06-26T15:41:36.510Z,100554.25
2023-06-26T15:43:56.088Z,100651.53
2023-06-26T15:46:22.571Z,100680.50
2023-06-26T15:46:36.683Z,100680.50
2023-06-26T15:48:49.070Z,100544.38
2023-06-26T15:51:16.428Z,100550.28
2023-06-26T15:51:36.531Z,100550.28
2023-06-26T15:53:43.710Z,100520.66
2023-06-26T15:56:11.943Z,100403.84
2023-06-26T15:56:36.543Z,100403.84
2023-06-26T15:58:42.909Z,100548.16
2023-06-26T16:01:10.915Z,100391.25
2023-06-26T16:01:37.162Z,100391.25
2023-06-26T16:03:38.329Z,100481.16
2023-06-26T16:06:04.800Z,100323.91
2023-06-26T16:06:36.498Z,100323.91
2023-06-26T16:08:31.250Z,100386.28
2023-06-26T16:10:57.740Z,100487.38
2023-06-26T16:11:36.532Z,100487.38
2023-06-26T16:13:24.276Z,100476.03
2023-06-26T16:15:53.233Z,100412.22
2023-06-26T16:16:36.545Z,100412.22
2023-06-26T16:18:19.622Z,100489.22
2023-06-26T16:20:47.003Z,100486.00
2023-06-26T16:21:36.522Z,100486.00
2023-06-26T16:23:13.879Z,100493.00
2023-06-26T16:25:40.566Z,100437.91
2023-06-26T16:26:36.504Z,100437.91
2023-06-26T16:28:07.115Z,100277.97
2023-06-26T16:30:33.598Z,100486.50
2023-06-26T16:31:36.604Z,100486.50
2023-06-26T16:33:00.219Z,100491.44
2023-06-26T16:35:28.275Z,100611.78
2023-06-26T16:36:36.518Z,100611.78
2023-06-26T16:37:54.676Z,100421.97
2023-06-26T16:40:21.213Z,100573.00
2023-06-26T16:41:36.539Z,100573.00
2023-06-26T16:42:47.803Z,100623.22
2023-06-26T16:45:14.200Z,100534.72
2023-06-26T16:46:36.557Z,100534.72
2023-06-26T16:47:40.913Z,100511.78
2023-06-26T16:50:07.936Z,100546.09
2023-06-26T16:51:36.518Z,100546.09
2023-06-26T16:52:34.391Z,100606.88
2023-06-26T16:55:03.443Z,100634.16
2023-06-26T16:56:36.525Z,100634.16
2023-06-26T16:57:29.871Z,100654.78
2023-06-26T16:59:56.719Z,100672.53
2023-06-26T17:01:36.621Z,100672.53
2023-06-26T17:02:23.273Z,100569.56
2023-06-26T17:04:49.762Z,100671.63
2023-06-26T17:06:36.543Z,100671.63
2023-06-26T17:07:16.335Z,100678.34
2023-06-26T17:09:42.842Z,100590.94
2023-06-26T17:11:36.525Z,100590.94
2023-06-26T17:12:09.410Z,100643.84
2023-06-26T17:14:35.779Z,100587.84
2023-06-26T17:16:36.528Z,100587.84
2023-06-26T17:17:02.177Z,100508.59
2023-06-26T17:19:28.581Z,100513.78
2023-06-26T17:21:36.523Z,100513.78
2023-06-26T17:21:54.985Z,100699.09
2023-06-26T17:24:21.520Z,100693.06
2023-06-26T17:26:36.510Z,100693.06
2023-06-26T17:26:48.048Z,100670.63
2023-06-26T17:29:14.488Z,100570.41
2023-06-26T17:31:38.210Z,100570.41
2023-06-26T17:31:41.873Z,100429.59
2023-06-26T17:34:08.642Z,100692.81
2023-06-26T17:36:35.121Z,100648.03
2023-06-26T17:36:36.531Z,100648.03
2023-06-26T17:39:03.409Z,100647.44
2023-06-26T17:41:29.799Z,100329.94
2023-06-26T17:41:36.545Z,100329.94
2023-06-26T17:43:56.269Z,100549.03
2023-06-26T17:46:22.695Z,100688.03
2023-06-26T17:46:36.684Z,100688.03
2023-06-26T17:48:49.113Z,100737.19
2023-06-26T17:51:15.624Z,100539.25
2023-06-26T17:51:36.532Z,100539.25
2023-06-26T17:53:42.365Z,100703.38
2023-06-26T17:56:08.872Z,100218.13
2023-06-26T17:56:36.555Z,100218.13
2023-06-26T17:58:35.644Z,100265.28
2023-06-26T18:01:02.154Z,100518.75
2023-06-26T18:01:36.679Z,100518.75
2023-06-26T18:03:28.698Z,100538.28
2023-06-26T18:05:55.371Z,100639.56
2023-06-26T18:06:36.577Z,100639.56
2023-06-26T18:08:21.944Z,100481.47
2023-06-26T18:10:51.026Z,100300.56
2023-06-26T18:11:36.697Z,100300.56
2023-06-26T18:13:17.726Z,100793.56
2023-06-26T18:15:44.392Z,100394.25
2023-06-26T18:16:36.577Z,100394.25
2023-06-26T18:18:11.434Z,100808.59
2023-06-26T18:20:40.613Z,100122.16
2023-06-26T18:21:36.554Z,100122.16
2023-06-26T18:23:07.414Z,100324.34
2023-06-26T18:25:34.036Z,100140.75
2023-06-26T18:26:36.597Z,100140.75
2023-06-26T18:28:00.571Z,100752.44
2023-06-26T18:30:27.327Z,100644.22
2023-06-26T18:31:36.614Z,100644.22
2023-06-26T18:32:53.900Z,100472.25
2023-06-26T18:35:20.589Z,100351.84
2023-06-26T18:36:36.540Z,100351.84
2023-06-26T18:37:47.301Z,100544.72
2023-06-26T18:40:15.920Z,100633.72
2023-06-26T18:41:36.594Z,100633.72
2023-06-26T18:42:43.646Z,100397.56
2023-06-26T18:45:12.838Z,100394.88
2023-06-26T18:46:36.572Z,100394.88
2023-06-26T18:47:39.566Z,100886.56
2023-06-26T18:50:08.654Z,100705.53
2023-06-26T18:51:36.553Z,100705.53
2023-06-26T18:52:35.336Z,100224.06